FLIGHT INFORMATION
Canadian Airlines

CDN745

At Arrival Gate

CYUL
 TNCM
DATE: 2018-12-24
GATE:  -
GATE DEPARTURE: 15:09
TAKEOFF: 15:20
DATE: 2018-12-24
GATE:  -
LANDING: 19:07
GATE ARRIVAL: 19:13
FLIGHT DATA
Crew: JASON BROWN
Speed: 497 kts Altitude: 37000 ft
Stage Length: 1730 nm
Route: WARDS MHT BOS ACK LARGE BOVIC BDA GECAL TALSU NUBUS KEEKA TRNKY PJM
Block Time: 4.1 Flight Time: 3.8
Fuel Used: 79254 LB
TRACK DATA
50000 FT1000 KTAltitudeSpeed
AIRCRAFT INFORMATION
Aircraft Type: B744
Registration: C-GMWW
SELCAL: ABEQ MSN/LN: 24883 / 823
Operator: CANADIAN AIRLINES
Flights: 4 Block Time: 11.3 Flight Time: 10.2
Fuel Used: 521266 LB
  • DEPARTURE INFORMATION
    Date: 2018-12-24
    Airport: CYUL
    Gate:  -
    Gate Departure: 15:09
    Takeoff: 15:20
    ARRIVAL INFORMATION
    Date: 2018-12-24
    Airport: TNCM
    Gate:  -
    Landing: 19:07
    Gate Arrival: 19:13
  • FLIGHT DATA
    Crew: JASON BROWN
    Speed: 497 kts Altitude: 37000 ft
    Stage Length: 934 nm
    Route: WARDS MHT BOS ACK LARGE BOVIC BDA GECAL TALSU NUBUS KEEKA TRNKY PJM
    Block Time: 4.1 Flight Time: 3.8
    Fuel Used: 79254 LB
  • AIRCRAFT INFORMATION
    Aircraft Type: B744
    Registration: C-GMWW
    SELCAL: ABEQ MSN/LN: 24883 / 823
    Operator: Canadian Airlines
    Flights: 4 Block Time: 11.3 Flight Time: 10.2
    Fuel Used: 521266 LB

DATALINK LOG | Newest first | Current as of: 2020-07-13 23:10:22
LABEL ID SEQUENCE CONTENT Dn/Up
QD130419:13 33.5▼ Dn
QC070619:07▼ Dn
5U1342TNCM 242340Z 2500/2524 07008KT P6SM FEW018 SCT035 FM251200 09012KT P6SM VCSH SCT020▲ Up
5S1432TNCM▼ Dn
2U1342TNCM 250000Z 08010KT 050V130 9999 FEW020 26/19 Q1017 A3003 NOSIG▲ Up
2S1426TNCM▼ Dn
QB190515:19▼ Dn
QA074915:07 112.9▼ Dn
5U0857TNCM 241720Z 2418/2518 10012KT P6SM FEW020 TEMPO 2418/2420 5SM -SHRA BKN022 FM242000 07009KT P6SM FEW018 SCT035 TEMPO 2512/2515 07010KT P6SM -RA SCT025▲ Up
5S0446TNCM▼ Dn
2U0857CYUL 242300Z 31002KT 15SM -SHSN BKN033 OVC060 M06/M10 A3005 RMK SC5SC3 CVCTV CLD EMBD SLP179▲ Up
2S0441CYUL▼ Dn


AIRCRAFT HISTORY
FLIGHT DATE FLIGHT NUMBER ORIGIN DESTINATION ROUTE BLOCK TIME FLIGHT TIME FUEL USED (LB) PILOT
2019-08-02CDN801CYYZ VHHH CYYZ TONNY YYB 5080N 5581N 6083N 6585N 7088N YRB 80N10 82N30 LAHEY LETUN LOMRI IDIMA OGTIL GIKSI TEMGA ABDAG GANPA RUSED ARTUN NAROV DEBED PITIL OLDEP OKUNI RELSO RIKLI UNARU IDRAN URIPA BALOP TINEG TEBRI GABAL NEKLU BIGMA SULOK BURIM PICAS ZOBUL POLHO UKBAD TMR TZH LARAD UBTAB SJW OLRAP WXI AKOMA IDULA ZHO OBLIK ESDOS HOK LKO DAPRO AKUBA LUMKO PAVTU LIG NIVEM BEMAG NNX WYN SANIP NOMAR UBLIM NLG ZUH SIERA VHHH1514.6329346Mats Johansson
2018-12-25CDN748TNCM CYYZ JUICE LARPP PASIC STT PALCO CHAKA SJU JAAWS UTAHS ELMUC MYSTR LERUG DUNED CERDA LETON ILIDO JAINS OLDEY ILM RIC56 FAK LDN WOZEE4.74.389902Jason Brown
2018-12-24CDN745CYUL TNCM WARDS MHT BOS ACK LARGE BOVIC BDA GECAL TALSU NUBUS KEEKA TRNKY PJM4.13.879254Jason Brown
2018-07-02CDN901CYYZ CYUL 1.30.922763Jason Brown